Logs | Frank O'Donnell, South Pasadena, CA, USA - DM04wc
Paging Controls
Log ID Date UTC KHz ID Location S/P ITU Region GSQ LSB USB Sec. Fmt. Power KM Miles Deg
2485677 2024-03-25 0724 209 ITR 'Kit Carson' Burlington CO USA na DM89uf 25 1520 944 63
2485679 2024-03-23 1029 220 HLE Hailey ID USA na DN23vh 50 1078 670 17
2485680 2024-03-23 1006 233 OKS Oshkosh NE USA na DN81tj 25 1601 995 54
2485678 2024-03-23 0541 218 PR Prince Rupert BC CAN na CO44sg 500 2440 1516 340
2476671 2024-02-26 0709 392 AGZ Wagner SD USA na EN03ub 25 1984 1232 54
2476666 2024-02-24 1040 385 OCC 'Ocean Cape' Yakutat AK ALS na CO09dn 3239 2013 337
2476669 2024-02-24 1003 390 HBT Sand Point (Borland) AK ALS na AO95rh 4004 2488 319
2476667 2024-02-24 0856 386 HAU 'Hauser' Helena MT USA na DN46cn 25 1484 922 19
2476673 2024-02-24 0813 394 RWO 'Woody Island' Kodiak AK ALS na BO37us 3657 2272 326
2476668 2024-02-24 0758 389 YWB Kelowna BC CAN na DN09et 1751 1088 356
2476672 2024-02-24 0747 392 FMZ 'Beklof' Fairmont NE USA na EN10fo 25 1952 1213 62
2476670 2024-02-24 0658 391 DDP San Juan / Dorado / Luiz Munoz Marin Intl PR PTR ca FK68tl 2000 5382 3344 95
2476664 2024-02-24 0553 385 CPZ 'Chaparrosa Ranch' La Pryor TX USA na DL98xv 25 1806 1122 103
2476665 2024-02-24 0526 385 HO 'Hossy' Hot Springs AR USA na EM34jk 50 2284 1419 81
2476674 2024-02-24 0032 397 SB 'Petis' San Bernardino CA USA na DM14hb 50 69 43 93
2465774 2024-01-28 0933 411 ILI Iliamna AK ALS na BO29nr 3897 2421 328
2465776 2024-01-28 0915 414 LYI Libby MT USA na DN28gh 100 1595 991 7
2465768 2024-01-28 0836 402 CV Carlz Carlsbad NM USA na DM72tg 1295 804 95
2465767 2024-01-28 0836 401 YPO Peawanuck ON CAN na EO74gx 125 3422 2126 37
2465775 2024-01-28 0821 414 GRN Gordon NE USA na DN82vt 1686 1048 50
2465765 2024-01-28 0819 400 AHQ Wahoo NE USA na EN11qf 2044 1270 60
2465772 2024-01-28 0745 408 JDM 'Wheatfield' Colby KS USA na DM99lm 25 1632 1014 63
2465770 2024-01-28 0729 407 HRU Herington KS USA na EM18oq 25 1971 1225 68
2465773 2024-01-28 0717 408 MW 'Pelly' Moses Lake WA USA na DN07ic 1449 900 356
2465771 2024-01-28 0526 407 OOC 'Campi' Natchitoches LA USA na EM31lp 25 2352 1462 89
2465769 2024-01-28 0510 404 MOG Montague CA USA na CN81sr 25 929 577 337
2465766 2024-01-27 0751 400 ROB 'Robinson' Waco TX USA na EM11lm 1987 1235 92
2462021 2024-01-16 0856 300 YIV Island Lake MB CAN na EO23qu 500 2864 1779 32
2462026 2024-01-15 1012 341 ELF 'Elfee' Cold Bay AK ALS na AO85oh 1000 4140 2572 318
2462029 2024-01-15 0915 385 EHM Cape Newenham AK ALS na AO88xp 100 4213 2618 324
2462025 2024-01-15 0743 337 FF 'Hamre' Fergus Falls MN USA na EN16xf 25 2298 1428 47
2462027 2024-01-15 0728 344 TKH 'Tallulah' Vicksburg LA USA na EM42lf 2522 1567 87
2462019 2024-01-15 0710 258 ZSJ Sandy Lake ON CAN na EO33hb 500 2873 1785 35
2462028 2024-01-14 0855 350 VTR 'Takotna River' McGrath AK ALS na BP22fw 4115 2557 332
2462017 2024-01-14 0844 212 YGX Gillam MB CAN na EO26pi 3047 1893 28
2462024 2024-01-14 0749 334 YER Fort Severn ON CAN na EO65ex 195 3363 2089 34
2462030 2024-01-14 0745 515 CL 'Elwha' Port Angeles WA USA na CN88dd 1629 1012 345
2462023 2024-01-14 0735 329 YEK Arviat NU CAN na EP21xc 500 3459 2149 22
2462020 2024-01-14 0730 290 QR Regina SK CAN na DO70ri 100 2117 1316 27
2462018 2024-01-14 0610 250 FO Flin Flon MB CAN na DO94dq 1600 2619 1628 24
2462022 2024-01-14 0415 328 YTL Big Trout Lake ON CAN na EO53bt 1000 3110 1932 36
2462708 2024-01-13 1440 218 PR Prince Rupert BC CAN na CO44sg 500 2440 1516 340
2462707 2024-01-13 1207 209 CYT Yakataga AK ALS na BP80sc 1000 3385 2103 336
2462709 2024-01-13 0940 382 YE Fort Nelson BC CAN na CO88pt 100 2768 1720 354
2462710 2024-01-13 0835 379 DL 'Pykla' Duluth MN USA na EN36tu 2580 1603 48
2462715 2024-01-13 0823 393 BR 'Depoo' Brownsville TX USA na EL15fx 2172 1349 109
2462714 2024-01-13 0722 351 YKQ Waskaganish QC CAN na FO01pl 500 3688 2291 46
2462711 2024-01-13 0708 349 GW 'Teock' Greenwood MS USA na EM43wo 25 2578 1602 83
2462712 2024-01-13 0700 393 BZ 'Fossi' Clinton OK USA na EM05jk 25 1731 1076 79
2454650 2023-12-31 1318 356 ZF Yellowknife NT CAN na DP22sj 1000 3156 1961 3
2462713 2023-12-31 1029 356 PND 'Abate' Portland OR USA na CN85lp 1349 838 343
2454646 2023-12-31 1004 359 GGF Grant NE USA na DN90du 1628 1011 57
2454629 2023-12-31 0949 209 ITR 'Kit Carson' Burlington CO USA na DM89uf 25 1520 944 63
2454624 2023-12-31 0919 311 9Y Pincher Creek AB CAN na DN39am 50 1748 1086 10
2454628 2023-12-31 0909 293 MB 'Mill Bay' Victoria BC CAN na CN88fq 25 1682 1045 346
2454555 2023-12-31 0907 356 SJ 'Woole' San Angelo TX USA na DM91rg 1673 1040 95
2454635 2023-12-31 0904 414 GL 'Shugr' Goodland KS USA na DM99eh 25 1578 980 63
2454631 2023-12-31 0903 220 HLE Hailey ID USA na DN23vh 50 1078 670 17
2454657 2023-12-31 0902 293 TOR Torrington WY USA na DN72wb 25 1508 937 49
2454654 2023-12-31 0856 392 AGZ Wagner SD USA na EN03ub 25 1984 1232 54
2454651 2023-12-31 0855 382 YPL Pickle Lake ON CAN na EO41vk 500 2952 1834 40
2454625 2023-12-31 0844 376 K2 Olds-Didsbury AB CAN na DO21wr 1986 1234 8
2454644 2023-12-31 0829 293 FBY Fairbury NE USA na EN10ke 50 1974 1227 63
2454647 2023-12-31 0818 416 LB 'Panbe' North Platte NE USA na DN91rb 50 1727 1073 58
2454623 2023-12-31 0813 362 6T Foremost AB CAN na DN49gl 41 1795 1115 15
2454622 2023-12-31 0805 365 PAL Palma EQA sa FI07cx 1000 5670 3523 127
2454656 2023-12-31 0756 365 DPY Deer Park WA USA na DN17gx 50 1544 959 1
2454626 2023-12-31 0756 332 XH Medicine Hat AB CAN na DO40oa 50 1868 1161 16
2454573 2023-12-31 0753 329 CH 'Ashly' Charleston SC USA na EM92wx 400 3503 2177 81
2454638 2023-12-31 0749 420 PK Olathe KS USA na EM28ps 25 2151 1337 69
2454642 2023-12-31 0748 386 HAU 'Hauser' Helena MT USA na DN46cn 25 1484 922 19
2454561 2023-12-31 0747 330 MF 'Missi' Mc Allen TX USA na EL06ug 2091 1299 109
2454637 2023-12-31 0746 374 HY 'Nette' Hays KS USA na EM08js 1766 1097 67
2454633 2023-12-31 0744 410 BA 'Clifs' Columbus IN USA na EM79ch 25 2923 1816 69
2454639 2023-12-31 0743 353 PG Portage MB CAN na EN09vu 25 2389 1484 36
2454565 2023-12-31 0739 267 HET Henryetta OK USA na EM15xj 25 2018 1254 79
2454645 2023-12-31 0615 392 FMZ 'Beklof' Fairmont NE USA na EN10fo 25 1952 1213 62
2454569 2023-12-31 0557 407 OOC 'Campi' Natchitoches LA USA na EM31lp 25 2352 1462 89
2454652 2023-12-31 0557 346 YXL Sioux Lookout ON CAN na EO40bc 1000 2777 1725 42
2454634 2023-12-31 0556 395 CA 'Harvs' Newton KS USA na EM18id 25 1920 1193 70
2454649 2023-12-31 0556 379 BRA 'Broad River' Asheville NC USA na EM85sg 100 3246 2017 77
2454572 2023-12-31 0556 385 EMR 'Emory' Augusta GA USA na EM93al 400 3325 2066 80
2454632 2023-12-31 0553 382 SP 'Huskk' Springfield IL USA na EM59cs 25 2584 1605 67
2454560 2023-12-31 0552 400 ROB 'Robinson' Waco TX USA na EM11lm 1987 1235 92
2454568 2023-12-31 0552 375 DS Searcy AR USA na EM45cc 25 2406 1495 79
2454562 2023-12-31 0551 338 HR 'Sebas' Harlingen TX USA na EL16eh 25 2147 1334 108
2454641 2023-12-31 0550 420 FQ 'Montz' Fairmont MN USA na EN23tp 25 2302 1430 55
2454570 2023-12-31 0550 385 DXB De Ridder LA USA na EM30hs 2346 1458 92
2454648 2023-12-31 0549 329 PMV Plattsmouth NE USA na EN20bw 25 2097 1303 62
2454567 2023-12-31 0545 335 BV 'Almnd' Batesville AR USA na EM45cq 25 2401 1492 78
2454571 2023-12-31 0545 366 EZM Eastman GA USA na EM82kd 25 3251 2020 83
2454655 2023-12-31 0544 335 BK 'CHRLZ' Brookings SD USA na EN14mi 25 2140 1330 51
2454643 2023-12-31 0539 400 AHQ Wahoo NE USA na EN11qf 2044 1270 60
2454566 2023-12-31 0537 353 LI 'Lasky' Little Rock AR USA na EM34uq 400 2365 1469 81
2454557 2023-12-31 0534 353 AB 'Tomhi' Abilene TX USA na EM02dh 1722 1070 91
2454564 2023-12-31 0534 400 AI 'Addmo' Ardmore OK USA na EM14mf 25 1944 1208 83
2454559 2023-12-30 0820 341 DNI Denison TX USA na EM13pt 25 1972 1225 84
2454556 2023-12-29 0625 335 DR 'Kotti' Del Rio TX USA na DL99mk 1701 1057 103
2454558 2023-12-29 0616 385 CPZ 'Chaparrosa Ranch' La Pryor TX USA na DL98xv 25 1806 1122 103
2454640 2023-12-29 0615 365 AA 'Kenie' Fargo MN USA na EN17oa 100 2291 1424 44
2454653 2023-12-29 0613 371 GW Jarpik Kuujjuarapik QC CAN na FO15cg 500 3878 2409 40
2454636 2023-12-29 0613 407 HRU Herington KS USA na EM18oq 25 1971 1225 68
2454630 2023-12-29 0610 344 JA 'Dinns' Jacksonville FL USA na EM90cl 400 3421 2125 86
2454621 2023-12-29 0602 369 ZDX Coolidge Saint Johns ATG ca FK97cd 700 5876 3651 93
2454627 2023-12-27 0943 320 YQF Red Deer AB CAN na DO32bd 50 2035 1264 8
2454550 2023-12-27 0922 278 CEP 'Capitan' Ruidoso NM USA na DM73hl 25 1179 733 89
2454554 2023-12-27 0849 251 AM 'Pande' Amarillo TX USA na DM95cd 400 1497 930 80
2454549 2023-12-26 1106 351 AE 'Dudle' Albuquerque NM USA na DM65pf 1051 653 79
2454553 2023-12-26 1105 326 MA 'Farly' Midland TX USA na DM81ux 400 1493 928 94
2454545 2023-12-26 1104 332 POA Pahoa HI HWA oc BK29mn 400 3968 2465 255
2454552 2023-12-26 1056 402 CV Carlz Carlsbad NM USA na DM72tg 1295 804 95
2454546 2023-12-26 1049 397 SB 'Petis' San Bernardino CA USA na DM14hb 50 69 43 93
2454547 2023-12-26 1049 404 MOG Montague CA USA na CN81sr 25 929 577 337
2454548 2023-12-26 1049 338 RYN 'Ryan' Tucson AZ USA na DM42kd 400 687 427 106
2454551 2023-12-26 0942 305 RO 'Topan' Roswell NM USA na DM73si 400 1266 786 89
2454563 2023-12-26 0822 275 GUY Guymon OK USA na DM96fq 25 1528 950 74
2443418 2023-11-25 0806 374 EX Rutland (Kelowna) BC CAN na DN09hw 1763 1096 357
2443419 2023-11-25 0714 383 CNP Chappell NE USA na DN81sb 25 1579 981 56
2441810 2023-11-20 1340 385 OCC 'Ocean Cape' Yakutat AK ALS na CO09dn 3239 2013 337
2441809 2023-11-20 1227 383 CNP Chappell NE USA na DN81sb 25 1579 981 56
2441794 2023-11-20 1224 305 RO 'Topan' Roswell NM USA na DM73si 400 1266 786 89
2441790 2023-11-20 1218 257 LW Kelowna BC CAN na DO00hb 50 1777 1104 357
2441815 2023-11-20 1217 394 RWO 'Woody Island' Kodiak AK ALS na BO37us 3657 2272 326
2441824 2023-11-20 1214 530 ADK 'Mount Moffett' Adak Island AK ALS na AO11pu 4999 3106 311
2441793 2023-11-20 1213 278 CEP 'Capitan' Ruidoso NM USA na DM73hl 25 1179 733 89
2441803 2023-11-20 1212 351 AE 'Dudle' Albuquerque NM USA na DM65pf 1051 653 79
2441789 2023-11-20 1210 251 YCD Nanaimo BC CAN na CN89bd 500 1738 1080 345
2441806 2023-11-20 1208 365 MA Mayo YT CAN na CP23bp 500 3504 2177 344
2441812 2023-11-20 1150 389 TW 'Strik' Twin Falls ID USA na DN22tl 987 613 18
2441817 2023-11-20 1141 401 YPO Peawanuck ON CAN na EO74gx 125 3422 2126 37
2441811 2023-11-20 1138 389 YWB Kelowna BC CAN na DN09et 1751 1088 356
2441791 2023-11-20 1137 266 VR Vancouver BC CAN na CN89le 50 1725 1072 347
2441822 2023-11-20 1126 411 ILI Iliamna AK ALS na BO29nr 3897 2421 328
2441823 2023-11-20 1124 525 ICW 'Ice Pool' Nenana AK ALS na BP54ln 25 3976 2471 337
2441796 2023-11-20 1122 326 DC Princeton BC CAN na CN99rl 500 1721 1069 354
2441798 2023-11-20 1119 332 POA Pahoa HI HWA oc BK29mn 400 3968 2465 255
2441788 2023-11-20 1108 242 XC Cranbrook BC CAN na DN29cq 400 1743 1083 5
2441805 2023-11-20 1106 359 YAZ Tofino BC CAN na CN79db 1777 1104 341
2441802 2023-11-20 1104 347 SBX Shelby MT USA na DN48bm 50 1684 1047 16
2441813 2023-11-20 1103 390 HBT Sand Point (Borland) AK ALS na AO95rh 4004 2488 319
2441807 2023-11-20 1103 368 SX Skookum (Cranbrook) BC CAN na DN29cw 500 1771 1100 5
2441808 2023-11-20 1101 374 EX Rutland (Kelowna) BC CAN na DN09hw 1763 1096 357
2441799 2023-11-20 1059 332 QT Thunder Bay ON CAN na EN58gi 1000 2847 1769 47
2441804 2023-11-20 0824 356 ODX Ord NE USA na EN01mo 25 1872 1163 57
2441820 2023-11-20 0820 408 MW 'Pelly' Moses Lake WA USA na DN07ic 1449 900 356
2441795 2023-11-20 0808 326 MA 'Farly' Midland TX USA na DM81ux 400 1493 928 94
2441792 2023-11-20 0801 275 GUY Guymon OK USA na DM96fq 25 1528 950 74
2441800 2023-11-20 0757 335 DR 'Kotti' Del Rio TX USA na DL99mk 1701 1057 103
2441797 2023-11-20 0755 332 FIS 'Fish Hook' Key West FL USA na EL94cn 400 3657 2272 97
2441819 2023-11-20 0752 404 MOG Montague CA USA na CN81sr 25 929 577 337
2441816 2023-11-20 0752 397 SB 'Petis' San Bernardino CA USA na DM14hb 50 69 43 93
2441801 2023-11-20 0752 338 RYN 'Ryan' Tucson AZ USA na DM42kd 400 687 427 106
2441814 2023-11-20 0709 391 DDP San Juan / Dorado / Luiz Munoz Marin Intl PR PTR ca FK68tl 2000 5382 3344 95
2441821 2023-11-20 0656 408 JDM 'Wheatfield' Colby KS USA na DM99lm 25 1632 1014 63
2441818 2023-11-20 0655 402 CV Carlz Carlsbad NM USA na DM72tg 1295 804 95
2424702 2023-09-24 1146 344 XX Abbotsford BC CAN na CN89sa 1697 1054 349
2424711 2023-09-24 0935 408 MW 'Pelly' Moses Lake WA USA na DN07ic 1449 900 356
2424709 2023-09-23 1303 251 YCD Nanaimo BC CAN na CN89bd 500 1738 1080 345
2424699 2023-09-23 0948 332 POA Pahoa HI HWA oc BK29mn 400 3968 2465 255
2424703 2023-09-23 0620 351 AE 'Dudle' Albuquerque NM USA na DM65pf 1051 653 79
2424698 2023-09-23 0611 326 DC Princeton BC CAN na CN99rl 500 1721 1069 354
2424704 2023-09-23 0550 368 SX Skookum (Cranbrook) BC CAN na DN29cw 500 1771 1100 5
2424710 2023-09-23 0549 326 MA 'Farly' Midland TX USA na DM81ux 400 1493 928 94
2424700 2023-09-23 0543 335 DR 'Kotti' Del Rio TX USA na DL99mk 1701 1057 103
2424705 2023-09-23 0540 397 SB 'Petis' San Bernardino CA USA na DM14hb 50 69 43 93
2424706 2023-09-23 0540 404 MOG Montague CA USA na CN81sr 25 929 577 337
2424697 2023-09-23 0535 305 RO 'Topan' Roswell NM USA na DM73si 400 1266 786 89
2424701 2023-09-23 0530 338 RYN 'Ryan' Tucson AZ USA na DM42kd 400 687 427 106
2424708 2023-09-23 0527 251 AM 'Pande' Amarillo TX USA na DM95cd 400 1497 930 80
2424707 2023-09-23 0405 408 JDM 'Wheatfield' Colby KS USA na DM99lm 25 1632 1014 63
2417937 2023-08-28 1030 275 GUY Guymon OK USA na DM96fq 25 1528 950 74
2417949 2023-08-28 0858 408 MW 'Pelly' Moses Lake WA USA na DN07ic 1449 900 356
2417938 2023-08-28 0458 305 RO 'Topan' Roswell NM USA na DM73si 400 1266 786 89
2417943 2023-08-27 0553 351 AE 'Dudle' Albuquerque NM USA na DM65pf 1051 653 79
2417945 2023-08-26 1120 368 SX Skookum (Cranbrook) BC CAN na DN29cw 500 1771 1100 5
2417948 2023-08-26 1105 404 MOG Montague CA USA na CN81sr 25 929 577 337
2417939 2023-08-26 0726 326 MA 'Farly' Midland TX USA na DM81ux 400 1493 928 94
2417941 2023-08-26 0632 332 POA Pahoa HI HWA oc BK29mn 400 3968 2465 255
2417944 2023-08-26 0622 359 YAZ Tofino BC CAN na CN79db 1777 1104 341
2417934 2023-08-26 0621 242 XC Cranbrook BC CAN na DN29cq 400 1743 1083 5
2417946 2023-08-26 0620 391 DDP San Juan / Dorado / Luiz Munoz Marin Intl PR PTR ca FK68tl 2000 5382 3344 95
2417942 2023-08-26 0615 344 XX Abbotsford BC CAN na CN89sa 1697 1054 349
2417936 2023-08-26 0614 266 VR Vancouver BC CAN na CN89le 50 1725 1072 347
2417935 2023-08-26 0611 251 YCD Nanaimo BC CAN na CN89bd 500 1738 1080 345
2417947 2023-08-26 0605 397 SB 'Petis' San Bernardino CA USA na DM14hb 50 69 43 93
2417940 2023-08-26 0506 326 DC Princeton BC CAN na CN99rl 500 1721 1069 354
2411249 2023-07-29 1134 351 AE 'Dudle' Albuquerque NM USA na DM65pf 1051 653 79
2411250 2023-07-29 0912 359 YAZ Tofino BC CAN na CN79db 1777 1104 341
2411251 2023-07-29 0900 368 SX Skookum (Cranbrook) BC CAN na DN29cw 500 1771 1100 5
2404128 2023-06-26 0954 332 FIS 'Fish Hook' Key West FL USA na EL94cn 400 3657 2272 97
2404127 2023-06-24 0926 332 QT Thunder Bay ON CAN na EN58gi 1000 2847 1769 47
2404124 2023-06-24 0729 326 MA 'Farly' Midland TX USA na DM81ux 400 1493 928 94
2404125 2023-06-24 0722 326 DC Princeton BC CAN na CN99rl 500 1721 1069 354
2404126 2023-06-24 0717 332 POA Pahoa HI HWA oc BK29mn 400 3968 2465 255
2399630 2023-05-27 1109 408 MW 'Pelly' Moses Lake WA USA na DN07ic 1449 900 356
2399627 2023-05-27 1104 338 RYN 'Ryan' Tucson AZ USA na DM42kd 400 687 427 106
2399626 2023-05-27 1101 332 POA Pahoa HI HWA oc BK29mn 400 3968 2465 255
2399629 2023-05-27 1045 404 MOG Montague CA USA na CN81sr 25 929 577 337
2399625 2023-05-27 1023 326 MA 'Farly' Midland TX USA na DM81ux 400 1493 928 94
2399628 2023-05-26 2005 397 SB 'Petis' San Bernardino CA USA na DM14hb 50 69 43 93
2393948 2023-04-22 1124 251 AM 'Pande' Amarillo TX USA na DM95cd 400 1497 930 80
2393947 2023-04-22 1039 242 XC Cranbrook BC CAN na DN29cq 400 1743 1083 5
2393950 2023-04-22 1038 257 LW Kelowna BC CAN na DO00hb 50 1777 1104 357
2393949 2023-04-22 0953 251 YCD Nanaimo BC CAN na CN89bd 500 1738 1080 345
2388340 2023-03-26 1023 266 VR Vancouver BC CAN na CN89le 50 1725 1072 347
2388343 2023-03-25 0953 530 ADK 'Mount Moffett' Adak Island AK ALS na AO11pu 4999 3106 311
2388341 2023-03-25 0945 266 SLE 'Turno' Salem OR USA na CN84mu 50 1265 786 342
2388342 2023-03-25 0840 515 CL 'Elwha' Port Angeles WA USA na CN88dd 1629 1012 345
2388339 2023-03-25 0701 266 PYX Perryton TX USA na DM96pj 25 1600 994 75
2382634 2023-02-26 0955 290 QR Regina SK CAN na DO70ri 100 2117 1316 27
2386823 2023-02-26 0754 209 CYT Yakataga AK ALS na BP80sc 1000 3385 2103 336
2386826 2023-02-26 0740 374 HY 'Nette' Hays KS USA na EM08js 1766 1097 67
2386825 2023-02-26 0729 341 OIN Oberlin KS USA na DM99rt 25 1683 1045 62
2386828 2023-02-26 0725 418 CW 'Mossy' Lake Charles LA USA na EM30jh 25 2376 1476 93
2382636 2023-02-26 0723 293 FBY Fairbury NE USA na EN10ke 50 1974 1227 63
2386827 2023-02-26 0709 407 HRU Herington KS USA na EM18oq 25 1971 1225 68
2382630 2023-02-26 0702 277 ACE 'Kachemak' Homer AK ALS na BO49gp 3730 2318 329
2382633 2023-02-25 1021 284 QD The Pas MB CAN na DO93lx 500 2583 1605 25
2386824 2023-02-25 0920 230 NRN Norton KS USA na EM09bu 25 1739 1080 63
2382639 2023-02-25 0848 312 UNT Naramata (Penticton) BC CAN na DN09eo 1728 1074 356
2382638 2023-02-25 0834 311 9Y Pincher Creek AB CAN na DN39am 50 1748 1086 10
2386822 2023-02-25 0834 203 ZKI Kitimat BC CAN na CO54pb 2369 1472 342
2382629 2023-02-25 0742 275 HIN 'Whitney' Chadron NE USA na DN82kt 25 1622 1008 48
2382632 2023-02-25 0657 280 GYZ 'Camp Guernsey' Guernsey WY USA na DN72pf 50 1477 918 48
2382635 2023-02-25 0435 293 TOR Torrington WY USA na DN72wb 25 1508 937 49
2382631 2023-02-25 0427 278 CEP 'Capitan' Ruidoso NM USA na DM73hl 25 1179 733 89
2382637 2023-02-25 0424 305 RO 'Topan' Roswell NM USA na DM73si 400 1266 786 89
2382628 2023-02-25 0416 275 GUY Guymon OK USA na DM96fq 25 1528 950 74
2374105 2023-01-30 0818 233 OKS Oshkosh NE USA na DN81tj 25 1601 995 54
2374106 2023-01-30 0738 233 ALJ Orca Bay - Hinchinbrook Island AK ALS na BP60ql 1000 3577 2223 333
2374101 2023-01-30 0643 200 YJ Sydney BC CAN na CN88hp 100 1674 1040 346
2374104 2023-01-30 0635 233 BR Brandon MB CAN na DN99xv 25 2293 1425 34
2374103 2023-01-30 0635 220 HLE Hailey ID USA na DN23vh 50 1078 670 17
2374102 2023-01-30 0519 212 LIU Littlefield TX USA na DM83tw 25 1450 901 86
2374100 2023-01-28 0825 200 YDL Dease Lake BC CAN na CO58ak 2845 1767 345
2367402 2023-01-02 1100 332 POA Pahoa HI HWA oc BK29mn 400 3968 2465 255
2367403 2023-01-02 1030 353 LLD Lanai HI HWA oc BL10ms 2000 4079 2534 258
2367409 2023-01-02 1009 296 LGD La Grande OR USA na DN15ai 25 1251 777 0
2367410 2023-01-02 1007 408 MW 'Pelly' Moses Lake WA USA na DN07ic 1449 900 356
2367413 2023-01-02 1005 344 XX Abbotsford BC CAN na CN89sa 1697 1054 349
2367408 2023-01-02 1003 362 RPX Round Up MT USA na DN56rl 25 1595 991 27
2367404 2023-01-02 0906 251 YCD Nanaimo BC CAN na CN89bd 500 1738 1080 345
2367414 2023-01-02 0906 368 SX Skookum (Cranbrook) BC CAN na DN29cw 500 1771 1100 5
2367405 2023-01-02 0904 359 YAZ Tofino BC CAN na CN79db 1777 1104 341
2367411 2022-12-28 0555 338 RYN 'Ryan' Tucson AZ USA na DM42kd 400 687 427 106
2367406 2022-12-28 0555 397 SB 'Petis' San Bernardino CA USA na DM14hb 50 69 43 93
2367407 2022-12-28 0555 404 MOG Montague CA USA na CN81sr 25 929 577 337
2367412 2022-12-26 0932 326 DC Princeton BC CAN na CN99rl 500 1721 1069 354
2350538 2022-11-05 1146 212 LIU Littlefield TX USA na DM83tw 25 1450 901 86
2350539 2022-11-05 0643 332 FIS 'Fish Hook' Key West FL USA na EL94cn 400 3657 2272 97
2350541 2022-11-03 0801 347 SBX Shelby MT USA na DN48bm 50 1684 1047 16
2350542 2022-11-02 1034 368 VX Dafoe SK CAN na DO71ru 80 2253 1400 24
2350540 2022-11-02 0706 335 DR 'Kotti' Del Rio TX USA na DL99mk 1701 1057 103
2347903 2022-10-31 1017 419 GB 'Babsy' Great Bend KS USA na EM08ng 25 1785 1109 69
2347902 2022-10-31 0802 416 LB 'Panbe' North Platte NE USA na DN91rb 50 1727 1073 58
2347900 2022-10-30 0916 414 LYI Libby MT USA na DN28gh 100 1595 991 7
2347891 2022-10-29 1001 400 AHQ Wahoo NE USA na EN11qf 2044 1270 60
2347901 2022-10-29 0933 414 GL 'Shugr' Goodland KS USA na DM99eh 25 1578 980 63
2347896 2022-10-29 0858 407 OOC 'Campi' Natchitoches LA USA na EM31lp 25 2352 1462 89
2347875 2022-10-29 0812 240 BVS 'Skagit / Bay View' Burlington / Mt Vernon WA USA na CN88sl 25 1638 1018 348
2347893 2022-10-29 0808 402 CV Carlz Carlsbad NM USA na DM72tg 1295 804 95
2347899 2022-10-29 0759 414 GRN Gordon NE USA na DN82vt 1686 1048 50
2347892 2022-10-29 0719 400 ROB 'Robinson' Waco TX USA na EM11lm 1987 1235 92
2347898 2022-10-29 0539 408 MW 'Pelly' Moses Lake WA USA na DN07ic 1449 900 356
2347895 2022-10-29 0517 407 CO 'Petey' Colorado Springs CO USA na DM78pq 25 1303 809 63
2347897 2022-10-29 0418 408 JDM 'Wheatfield' Colby KS USA na DM99lm 25 1632 1014 63
2347894 2022-10-29 0308 404 MOG Montague CA USA na CN81sr 25 929 577 337
2347889 2022-10-28 1003 400 MDY 'Midway' Gooneyville (Sand Island) MDW oc AL18he 5599 3479 280
2347880 2022-10-27 1159 293 FBY Fairbury NE USA na EN10ke 50 1974 1227 63
2347890 2022-10-27 0932 525 ICW 'Ice Pool' Nenana AK ALS na BP54ln 25 3976 2471 337
2347888 2022-10-27 0900 385 HO 'Hossy' Hot Springs AR USA na EM34jk 50 2284 1419 81
2347886 2022-10-27 0851 347 ATA Atlanta TX USA na EM23vc 25 2213 1375 86
2347878 2022-10-27 0828 267 HET Henryetta OK USA na EM15xj 25 2018 1254 79
2347884 2022-10-27 0736 329 CH 'Ashly' Charleston SC USA na EM92wx 400 3503 2177 81
2347887 2022-10-27 0617 375 DS Searcy AR USA na EM45cc 25 2406 1495 79
2347885 2022-10-25 1057 330 MF 'Missi' Mc Allen TX USA na EL06ug 2091 1299 109
2347882 2022-10-25 1022 325 YJQ Bella Bella (Campbell Island) BC CAN na CO52we 2163 1344 341
2347877 2022-10-25 0858 266 ICK 'Nichols' Annette Island AK ALS na CO45eb 2554 1587 339
2347879 2022-10-25 0826 277 ACE 'Kachemak' Homer AK ALS na BO49gp 3730 2318 329
2347883 2022-10-25 0715 329 YEK Arviat NU CAN na EP21xc 500 3459 2149 22
2347881 2022-10-25 0709 308 ZZD Calmar (Edmonton Intl Apt) AB CAN na DO33eg 2161 1342 8
2347871 2022-10-25 0704 203 YBL Campbell River BC CAN na CO70ha 1866 1159 343
2347874 2022-10-25 0704 233 ALJ Orca Bay - Hinchinbrook Island AK ALS na BP60ql 1000 3577 2223 333
2347872 2022-10-24 1221 209 ITR 'Kit Carson' Burlington CO USA na DM89uf 25 1520 944 63
2347873 2022-10-24 1047 233 OKS Oshkosh NE USA na DN81tj 25 1601 995 54
2347876 2022-10-23 1051 266 PYX Perryton TX USA na DM96pj 25 1600 994 75
2344700 2022-10-22 0853 529 SQM 'Sumner Strait' Level Island AK ALS na CO36kl 400 2737 1700 339
2344699 2022-10-22 0842 385 EHM Cape Newenham AK ALS na AO88xp 100 4213 2618 324
2344163 2022-10-19 1316 266 SLE 'Turno' Salem OR USA na CN84mu 50 1265 786 342
2344210 2022-10-18 1129 362 6T Foremost AB CAN na DN49gl 41 1795 1115 15
2344170 2022-10-18 1129 290 QR Regina SK CAN na DO70ri 100 2117 1316 27
2344159 2022-10-18 1124 257 XE Saskatoon SK CAN na DO62oe 25 2205 1370 20
2344185 2022-10-18 1124 332 XH Medicine Hat AB CAN na DO40oa 50 1868 1161 16
2344148 2022-10-18 1117 200 YJ Sydney BC CAN na CN88hp 100 1674 1040 346
2344174 2022-10-18 1030 311 9Y Pincher Creek AB CAN na DN39am 50 1748 1086 10
2344156 2022-10-18 1025 250 FO Flin Flon MB CAN na DO94dq 1600 2619 1628 24
2344168 2022-10-18 1004 283 DUT 'Dutch Harbor' Unalaska AK ALS na AO63rv 1000 4339 2696 315
2344234 2022-10-18 0956 392 FMZ 'Beklof' Fairmont NE USA na EN10fo 25 1952 1213 62
2344230 2022-10-18 0952 390 HBT Sand Point (Borland) AK ALS na AO95rh 4004 2488 319
2344189 2022-10-18 0943 343 ML Minami Tori Shima MTS as QL64xg 1250 8345 5185 289
2344188 2022-10-18 0922 341 ELF 'Elfee' Cold Bay AK ALS na AO85oh 1000 4140 2572 318
2344219 2022-10-18 0828 378 AP Active Pass (Mayne Island) BC CAN na CN88iu 25 1695 1053 346
2344160 2022-10-18 0826 258 ZSJ Sandy Lake ON CAN na EO33hb 500 2873 1785 35
2344216 2022-10-18 0736 369 ZDX Coolidge Saint Johns ATG ca FK97cd 700 5876 3651 93
2344172 2022-10-17 1325 293 MB 'Mill Bay' Victoria BC CAN na CN88fq 25 1682 1045 346
2344153 2022-10-17 1243 242 ZT Port Hardy BC CAN na CO60gq 500 1993 1238 340
2344155 2022-10-17 1242 248 QL Lethbridge AB CAN na DN39no 1776 1104 12
2344227 2022-10-17 1240 386 HAU 'Hauser' Helena MT USA na DN46cn 25 1484 922 19
2344202 2022-10-17 1220 356 ON 'Okanagan' Penticton BC CAN na DN09fi 25 1700 1056 356
2344229 2022-10-17 1121 389 TW 'Strik' Twin Falls ID USA na DN22tl 987 613 18
2344151 2022-10-17 1045 220 HLE Hailey ID USA na DN23vh 50 1078 670 17
2344183 2022-10-17 0937 332 XT Terrace BC CAN na CO54ri 2394 1487 343
2344232 2022-10-17 0901 391 PLX 'Palestine' Robinson IL USA na EM69ea 25 2765 1718 69
2344194 2022-10-17 0859 347 AFK Nebraska City NE USA na EN20bo 2088 1297 63
2344167 2022-10-17 0840 280 GYZ 'Camp Guernsey' Guernsey WY USA na DN72pf 50 1477 918 48
2344203 2022-10-17 0839 356 PND 'Abate' Portland OR USA na CN85lp 1349 838 343
2344198 2022-10-17 0828 353 LI 'Lasky' Little Rock AR USA na EM34uq 400 2365 1469 81
2344184 2022-10-17 0811 332 QT Thunder Bay ON CAN na EN58gi 1000 2847 1769 47
2344149 2022-10-17 0810 201 IP Mobile AZ USA na DM33tc 25 544 338 100
2344237 2022-10-17 0756 400 AHQ Wahoo NE USA na EN11qf 2044 1270 60
2344214 2022-10-17 0735 365 FT 'Mufin' Fort Worth TX USA na EM12hv 25 1925 1196 88
2344220 2022-10-17 0715 379 RUE Russellville AR USA na EM35kg 25 2283 1419 79
2344209 2022-10-15 1108 362 SB Sudbury ON CAN na EN96mp 400 3403 2115 54
2344201 2022-10-15 0713 356 ZF Yellowknife NT CAN na DP22sj 1000 3156 1961 3
2344228 2022-10-14 1227 389 YWB Kelowna BC CAN na DN09et 1751 1088 356
2344207 2022-10-14 1105 359 GGF Grant NE USA na DN90du 1628 1011 57
2344175 2022-10-14 0802 312 UNT Naramata (Penticton) BC CAN na DN09eo 1728 1074 356
2344213 2022-10-14 0725 365 PAL Palma EQA sa FI07cx 1000 5670 3523 127
2344193 2022-10-14 0627 346 YXL Sioux Lookout ON CAN na EO40bc 1000 2777 1725 42
2344192 2022-10-14 0553 344 JA 'Dinns' Jacksonville FL USA na EM90cl 400 3421 2125 86
2344169 2022-10-13 0656 284 QD The Pas MB CAN na DO93lx 500 2583 1605 25
2344242 2022-10-13 0557 408 JDM 'Wheatfield' Colby KS USA na DM99lm 25 1632 1014 63
2344233 2022-10-13 0556 392 PNA 'Wenz' Pinedale WY USA na DN52ct 25 1209 751 34
2344165 2022-10-13 0535 275 HIN 'Whitney' Chadron NE USA na DN82kt 25 1622 1008 48
2344200 2022-10-12 1050 356 ODX Ord NE USA na EN01mo 25 1872 1163 57
2344150 2022-10-12 1008 218 PR Prince Rupert BC CAN na CO44sg 500 2440 1516 340
2344171 2022-10-12 1008 293 TOR Torrington WY USA na DN72wb 25 1508 937 49
2344218 2022-10-12 1003 376 K2 Olds-Didsbury AB CAN na DO21wr 1986 1234 8
2344161 2022-10-12 0953 264 SZT 'Sandpoe' Sandpoint ID USA na DN18rg 100 1581 982 4
2344204 2022-10-12 0949 358 SIT Sitka AK ALS na CO26fu 2852 1772 337
2344223 2022-10-12 0948 382 AW 'Waton' Arlington WA USA na CN88wb 50 1587 986 349
2344226 2022-10-12 0944 385 OCC 'Ocean Cape' Yakutat AK ALS na CO09dn 3239 2013 337
2344243 2022-10-12 0933 411 ILI Iliamna AK ALS na BO29nr 3897 2421 328
2344212 2022-10-12 0756 365 AA 'Kenie' Fargo MN USA na EN17oa 100 2291 1424 44
2344176 2022-10-10 1306 320 AI Aitutaki CKS oc BH01ce 7353 4568 223
2344177 2022-10-10 1212 320 YQF Red Deer AB CAN na DO32bd 50 2035 1264 8
2344199 2022-10-09 0723 356 MEF Medford OR USA na CN82nj 1010 628 337
2344164 2022-10-09 0414 275 GUY Guymon OK USA na DM96fq 25 1528 950 74
2344211 2022-10-08 1217 365 DPY Deer Park WA USA na DN17gx 50 1544 959 1
2344191 2022-10-08 1213 344 POY Powell WY USA na DN54ou 25 1437 893 30
2344162 2022-10-08 1129 266 VR Vancouver BC CAN na CN89le 50 1725 1072 347
2344222 2022-10-08 1127 382 YPW Powell River BC CAN na CN79ru 1828 1136 345
2344152 2022-10-08 1123 242 XC Cranbrook BC CAN na DN29cq 400 1743 1083 5
2344246 2022-10-08 1116 515 CL 'Elwha' Port Angeles WA USA na CN88dd 1629 1012 345
2344235 2022-10-08 0939 394 RWO 'Woody Island' Kodiak AK ALS na BO37us 3657 2272 326
2344154 2022-10-08 0938 248 WG Winnipeg MB CAN na EN19hv 250 2438 1515 37
2344245 2022-10-08 0925 414 LYI Libby MT USA na DN28gh 100 1595 991 7
2344166 2022-10-08 0919 278 CEP 'Capitan' Ruidoso NM USA na DM73hl 25 1179 733 89
2344157 2022-10-08 0908 251 YCD Nanaimo BC CAN na CN89bd 500 1738 1080 345
2344158 2022-10-08 0908 257 LW Kelowna BC CAN na DO00hb 50 1777 1104 357
2344206 2022-10-05 1059 359 SDR Snyder TX USA na DM92mq 25 1599 994 90
2344241 2022-10-05 1059 408 MW 'Pelly' Moses Lake WA USA na DN07ic 1449 900 356
2344190 2022-10-05 1056 344 XX Abbotsford BC CAN na CN89sa 1697 1054 349
2344247 2022-10-05 1055 530 ADK 'Mount Moffett' Adak Island AK ALS na AO11pu 4999 3106 311
2344224 2022-10-05 1055 383 CNP Chappell NE USA na DN81sb 25 1579 981 56
2344215 2022-10-05 1048 368 SX Skookum (Cranbrook) BC CAN na DN29cw 500 1771 1100 5
2344197 2022-10-05 1047 353 LLD Lanai HI HWA oc BL10ms 2000 4079 2534 258
2344221 2022-10-05 1042 380 GC 'Deryk' Gillette WY USA na DN74fg 25 1563 971 39
2344217 2022-10-05 1036 374 EX Rutland (Kelowna) BC CAN na DN09hw 1763 1096 357
2344240 2022-10-05 1034 407 CO 'Petey' Colorado Springs CO USA na DM78pq 25 1303 809 63
2344173 2022-10-05 1033 305 RO 'Topan' Roswell NM USA na DM73si 400 1266 786 89
2344205 2022-10-05 1028 359 YAZ Tofino BC CAN na CN79db 1777 1104 341
2344208 2022-10-05 1027 362 RPX Round Up MT USA na DN56rl 25 1595 991 27
2344180 2022-10-05 1026 329 PMV Plattsmouth NE USA na EN20bw 25 2097 1303 62
2344179 2022-10-05 1021 326 DC Princeton BC CAN na CN99rl 500 1721 1069 354
2344196 2022-10-05 1020 351 AE 'Dudle' Albuquerque NM USA na DM65pf 1051 653 79
2344244 2022-10-05 1020 414 GRN Gordon NE USA na DN82vt 1686 1048 50
2344181 2022-10-05 1019 332 POA Pahoa HI HWA oc BK29mn 400 3968 2465 255
2344238 2022-10-05 1018 402 CV Carlz Carlsbad NM USA na DM72tg 1295 804 95
2344186 2022-10-05 1006 338 RYN 'Ryan' Tucson AZ USA na DM42kd 400 687 427 106
2344178 2022-10-05 1005 326 MA 'Farly' Midland TX USA na DM81ux 400 1493 928 94
2344182 2022-10-05 1005 332 WC White Rock (Abbotsford) BC CAN na CN89oa 1703 1058 348
2344195 2022-10-05 1005 350 RG 'Gally' Oklahoma City OK USA na EM15eh 400 1875 1165 80
2344239 2022-10-05 1004 404 MOG Montague CA USA na CN81sr 25 929 577 337
2344187 2022-10-05 0928 341 DNI Denison TX USA na EM13pt 25 1972 1225 84
2344231 2022-10-05 0928 391 DDP San Juan / Dorado / Luiz Munoz Marin Intl PR PTR ca FK68tl 2000 5382 3344 95
2344225 2022-10-05 0851 385 CPZ 'Chaparrosa Ranch' La Pryor TX USA na DL98xv 25 1806 1122 103
2344236 2022-10-04 2200 397 SB 'Petis' San Bernardino CA USA na DM14hb 50 69 43 93
2338370 2022-09-25 1307 382 YE Fort Nelson BC CAN na CO88pt 100 2768 1720 354
2338369 2022-09-25 1133 382 AW 'Waton' Arlington WA USA na CN88wb 50 1587 986 349
2338368 2022-09-25 1039 382 YPW Powell River BC CAN na CN79ru 1828 1136 345
2338364 2022-09-25 1038 378 AP Active Pass (Mayne Island) BC CAN na CN88iu 25 1695 1053 346
2338362 2022-09-25 0923 374 EX Rutland (Kelowna) BC CAN na DN09hw 1763 1096 357
2338371 2022-09-25 0841 383 CNP Chappell NE USA na DN81sb 25 1579 981 56
2338363 2022-09-25 0750 376 K2 Olds-Didsbury AB CAN na DO21wr 1986 1234 8
2338366 2022-09-25 0718 380 GC 'Deryk' Gillette WY USA na DN74fg 25 1563 971 39
2338367 2022-09-25 0714 382 YPL Pickle Lake ON CAN na EO41vk 500 2952 1834 40
2338365 2022-09-25 0605 379 RUE Russellville AR USA na EM35kg 25 2283 1419 79
2331176 2022-08-18 0640 518 $12Q Cambria CA USA na CM95lm 309 192 301
2331175 2022-08-18 0510 518 $04G New Orleans LA USA na EL59av 2688 1670 92
2331174 2022-08-18 0420 518 $12C San Francisco (Point Reyes) CA USA na CM87pw 593 368 317
2326829 2022-07-23 1136 344 POY Powell WY USA na DN54ou 25 1437 893 30
2326827 2022-07-23 1108 341 OIN Oberlin KS USA na DM99rt 25 1683 1045 62
2326828 2022-07-23 1059 344 XX Abbotsford BC CAN na CN89sa 1697 1054 349
2326826 2022-07-23 1037 338 RYN 'Ryan' Tucson AZ USA na DM42kd 400 687 427 106
2321019 2022-06-25 1138 220 HLE Hailey ID USA na DN23vh 50 1078 670 17
2321021 2022-06-25 1131 290 YYF Penticton BC CAN na DN09el 500 1714 1065 356
2321024 2022-06-25 1127 390 HBT Sand Point (Borland) AK ALS na AO95rh 4004 2488 319
2321018 2022-06-25 1047 200 YJ Sydney BC CAN na CN88hp 100 1674 1040 346
2321023 2022-06-25 1036 350 RG 'Gally' Oklahoma City OK USA na EM15eh 400 1875 1165 80
2321020 2022-06-25 1030 280 GYZ 'Camp Guernsey' Guernsey WY USA na DN72pf 50 1477 918 48
2321017 2022-06-25 1019 200 YDL Dease Lake BC CAN na CO58ak 2845 1767 345
2321022 2022-06-25 0919 320 YQF Red Deer AB CAN na DO32bd 50 2035 1264 8
2310314 2022-04-24 0926 415 LO 'Targy' West Yellowstone MT USA na DN44jn 50 1305 811 24
2310313 2022-04-24 0619 332 FIS 'Fish Hook' Key West FL USA na EL94cn 400 3657 2272 97
2310312 2022-04-23 1115 332 POA Pahoa HI HWA oc BK29mn 400 3968 2465 255
2310311 2022-04-23 1030 326 DC Princeton BC CAN na CN99rl 500 1721 1069 354
2310310 2022-04-23 0904 320 AI Aitutaki CKS oc BH01ce 7353 4568 223
2303585 2022-03-26 0928 359 ANI Aniak AK ALS na BP01eo 250 4224 2624 329
2303582 2022-03-26 0927 350 VTR 'Takotna River' McGrath AK ALS na BP22fw 4115 2557 332
2303589 2022-03-26 0926 525 ICW 'Ice Pool' Nenana AK ALS na BP54ln 25 3976 2471 337
2303586 2022-03-26 0925 385 OCC 'Ocean Cape' Yakutat AK ALS na CO09dn 3239 2013 337
2303584 2022-03-26 0924 358 SIT Sitka AK ALS na CO26fu 2852 1772 337
2303590 2022-03-26 0915 529 SQM 'Sumner Strait' Level Island AK ALS na CO36kl 400 2737 1700 339
2303591 2022-03-26 0914 530 ADK 'Mount Moffett' Adak Island AK ALS na AO11pu 4999 3106 311
2303583 2022-03-26 0912 355 AUB 'Saldo' King Salmon AK ALS na BO18or 3939 2448 325
2303587 2022-03-26 0908 390 HBT Sand Point (Borland) AK ALS na AO95rh 4004 2488 319
2303588 2022-03-26 0906 394 RWO 'Woody Island' Kodiak AK ALS na BO37us 3657 2272 326
2303581 2022-03-26 0903 341 ELF 'Elfee' Cold Bay AK ALS na AO85oh 1000 4140 2572 318
2288925 2022-03-03 1001 529 SQM 'Sumner Strait' Level Island AK ALS na CO36kl 400 2737 1700 339
2324580 2022-03-02 0750 382 IRS Sturgis MI USA na EN71gt 25 2969 1845 63
2324581 2022-03-02 0747 400 CI 'Koloe' Sault Ste. Marie MI USA na EN76rh 25 3127 1943 54
2324577 2022-03-01 0956 335 DR 'Kotti' Del Rio TX USA na DL99mk 1701 1057 103
2324578 2022-03-01 0829 293 FBY Fairbury NE USA na EN10ke 50 1974 1227 63
2324579 2022-03-01 0745 378 RJ Roberval QC CAN na FN38un 500 4077 2533 52
2287505 2022-02-27 0941 257 DT 'Pinck' Denton TX USA na EM13jg 25 1934 1202 86
2287507 2022-02-27 0618 420 FQ 'Montz' Fairmont MN USA na EN23tp 25 2302 1430 55
2287495 2022-02-27 0529 242 EL 'Valtr' El Paso TX USA na DM61uu 400 1131 703 99
2287497 2022-02-26 0901 248 WG Winnipeg MB CAN na EN19hv 250 2438 1515 37
2287501 2022-02-26 0859 251 YCD Nanaimo BC CAN na CN89bd 500 1738 1080 345
2287493 2022-02-26 0852 242 XC Cranbrook BC CAN na DN29cq 400 1743 1083 5
2287496 2022-02-26 0837 245 FS 'Rokky' Sioux Falls SD USA na EN13ol 100 2113 1313 54
2287500 2022-02-26 0836 251 AM 'Pande' Amarillo TX USA na DM95cd 400 1497 930 80
2287494 2022-02-26 0816 242 ZT Port Hardy BC CAN na CO60gq 500 1993 1238 340
2287503 2022-02-26 0744 257 XE Saskatoon SK CAN na DO62oe 25 2205 1370 20
2287498 2022-02-26 0736 248 QL Lethbridge AB CAN na DN39no 1776 1104 12
2287499 2022-02-26 0735 250 FO Flin Flon MB CAN na DO94dq 1600 2619 1628 24
2287504 2022-02-26 0725 257 LW Kelowna BC CAN na DO00hb 50 1777 1104 357
2287502 2022-02-26 0658 257 HCY Cowley WY USA na DN54sv 50 1456 905 31
2287506 2022-02-26 0520 258 ZSJ Sandy Lake ON CAN na EO33hb 500 2873 1785 35
2273691 2022-01-29 1051 266 SLE 'Turno' Salem OR USA na CN84mu 50 1265 786 342
2273695 2022-01-29 0914 515 CL 'Elwha' Port Angeles WA USA na CN88dd 1629 1012 345
2273689 2022-01-29 0758 266 VR Vancouver BC CAN na CN89le 50 1725 1072 347
2273694 2022-01-29 0752 515 PN 'Ponca' Ponca City OK USA na EM16kt 25 1922 1194 74
2273690 2022-01-29 0752 266 PYX Perryton TX USA na DM96pj 25 1600 994 75
2273692 2022-01-29 0750 267 HET Henryetta OK USA na EM15xj 25 2018 1254 79
2273693 2022-01-29 0736 269 UDE Delta MB CAN na EO00ud 50 2405 1494 36
2271121 2022-01-25 1026 403 TUT Tafuna (Tutuila Island) SMA oc AH45pq 2000 7737 4807 235
2271120 2022-01-25 0721 230 BNZ Abbeville LA USA na EL39wx 25 2486 1545 93
2270912 2022-01-24 0831 388 CFJ Crawfordsville IN USA na EM69nx 25 2834 1761 67
2270914 2022-01-24 0809 414 GL 'Shugr' Goodland KS USA na DM99eh 25 1578 980 63
2270915 2022-01-24 0737 416 LB 'Panbe' North Platte NE USA na DN91rb 50 1727 1073 58
2270913 2022-01-24 0658 404 HU 'Saltt' Hutchinson KS USA na EM18ac 25 1861 1157 70
2270057 2022-01-23 0409 353 GVB 'Bogalusa' George R Carr Memorial Airfield LA USA na EM50bv 2664 1656 89
2269142 2022-01-21 0908 385 UWL New Castle IN USA na EM79iv 25 2968 1844 67
2261403 2022-01-08 0734 419 RYS 'Grosse Ile' Detroit / Grosse Ile MI USA na EN82kc 25 3164 1966 63
2261402 2022-01-08 0700 353 QG Saint Clair Beach (Windsor) ON CAN na EN82nh 25 3187 1980 62
2255991 2022-01-03 0732 330 MF 'Missi' Mc Allen TX USA na EL06ug 2091 1299 109
2255984 2022-01-02 1030 233 ALJ Orca Bay - Hinchinbrook Island AK ALS na BP60ql 1000 3577 2223 333
2255922 2022-01-02 0759 400 AI 'Addmo' Ardmore OK USA na EM14mf 25 1944 1208 83
2255925 2022-01-02 0744 393 BZ 'Fossi' Clinton OK USA na EM05jk 25 1731 1076 79
2255932 2022-01-02 0724 219 ZRS 'Ajax' Regina SK CAN na DO70pl 2122 1318 26
2255966 2022-01-02 0711 221 QU Grande Prairie AB CAN na DO05od 50 2340 1454 358
2255968 2022-01-02 0708 215 ZAB 'Leduc' Edmonton (Intl Apt) AB CAN na DO33gf 25 2158 1341 8
2255900 2022-01-02 0703 260 MTH Marathon FL USA na EL94kr 100 3710 2305 96
2255989 2022-01-02 0701 266 ICK 'Nichols' Annette Island AK ALS na CO45eb 2554 1587 339
2255954 2022-01-02 0657 224 MO Moosonee ON CAN na EO91qg 400 3554 2208 46
2255920 2022-01-02 0652 388 OK 'Preso' Preston (Okmulgee) OK USA na EM25as 25 2025 1258 78
2255998 2022-01-02 0652 353 AB 'Tomhi' Abilene TX USA na EM02dh 1722 1070 91
2255992 2022-01-02 0649 400 ROB 'Robinson' Waco TX USA na EM11lm 1987 1235 92
2255967 2022-01-02 0643 292 ZET Devon (Edmonton Intl Apt) AB CAN na DO33di 25 2169 1347 7
2255971 2022-01-02 0512 405 9G Sundre AB CAN na DO21ps 500 1983 1232 6
2255885 2022-01-01 0925 360 OX Iwo Jima VOI as QL04ps 1250 9389 5834 296
2255887 2022-01-01 0920 320 AI Aitutaki CKS oc BH01ce 7353 4568 223
2255929 2022-01-01 0919 397 ZSS Yellowhead (Saskatoon) SK CAN na DO62pf 25 2212 1374 20
2255890 2022-01-01 0905 400 MDY 'Midway' Gooneyville (Sand Island) MDW oc AL18he 5599 3479 280
2255927 2022-01-01 0841 402 L4 Nipawin SK CAN na DO73xi 200 2411 1498 23
2255982 2022-01-01 0839 411 ILI Iliamna AK ALS na BO29nr 3897 2421 328
2255983 2022-01-01 0834 394 RWO 'Woody Island' Kodiak AK ALS na BO37us 3657 2272 326
2255894 2022-01-01 0831 365 MA Mayo YT CAN na CP23bp 500 3504 2177 344
2255979 2022-01-01 0821 350 VTR 'Takotna River' McGrath AK ALS na BP22fw 4115 2557 332
2255951 2022-01-01 0504 269 UDE Delta MB CAN na EO00ud 50 2405 1494 36
2255943 2022-01-01 0450 233 OKS Oshkosh NE USA na DN81tj 25 1601 995 54
2255886 2021-12-31 1104 366 PNI Pohnpei FSM oc QJ96cx 8991 5586 272
2255981 2021-12-31 1040 525 ICW 'Ice Pool' Nenana AK ALS na BP54ln 25 3976 2471 337
2255977 2021-12-31 1015 530 ADK 'Mount Moffett' Adak Island AK ALS na AO11pu 4999 3106 311
2255978 2021-12-31 0956 341 ELF 'Elfee' Cold Bay AK ALS na AO85oh 1000 4140 2572 318
2255965 2021-12-31 0952 207 PY Fort Chipewyan AB CAN na DO48ks 50 2791 1734 8
2255972 2021-12-31 0736 376 K2 Olds-Didsbury AB CAN na DO21wr 1986 1234 8
2255930 2021-12-30 0812 356 ZXE Barnes (Saskatoon) SK CAN na DO62rd 39 2209 1373 21
2255897 2021-12-30 0355 224 BH 'Mc Den' Birmingham AL USA na EM63nm 400 2876 1787 82
2255944 2021-12-29 0919 212 YGX Gillam MB CAN na EO26pi 3047 1893 28
2255910 2021-12-29 0912 395 CA 'Harvs' Newton KS USA na EM18id 25 1920 1193 70
2255946 2021-12-29 0906 207 YNE Norway House MB CAN na EO13bx 1000 2718 1689 29
2255916 2021-12-29 0903 280 GYZ 'Camp Guernsey' Guernsey WY USA na DN72pf 50 1477 918 48
2255945 2021-12-29 0859 300 YIV Island Lake MB CAN na EO23qu 500 2864 1779 32
2255953 2021-12-29 0856 224 DN Dauphin MB CAN na DO91xc 25 2387 1483 32
2255987 2021-12-29 0847 391 EEF 'Elephant' Sisters Island AK ALS na CO28ie 2967 1843 339
2255934 2021-12-29 0806 402 M3 Kindersley SK CAN na DO51jm 2065 1283 17
2255905 2021-12-29 0806 340 YY Mont Joli QC CAN na FN58un 500 4370 2715 52
2255976 2021-12-29 0744 311 9Y Pincher Creek AB CAN na DN39am 50 1748 1086 10
2255949 2021-12-29 0725 375 BM Balmoral MB CAN na EO10id 25 2460 1528 37
2255958 2021-12-29 0713 276 YEL Elliot Lake ON CAN na EN86qi 250 3272 2033 54
2255969 2021-12-29 0558 308 ZZD Calmar (Edmonton Intl Apt) AB CAN na DO33eg 2161 1342 8
2255957 2021-12-29 0556 334 YER Fort Severn ON CAN na EO65ex 195 3363 2089 34
2255964 2021-12-29 0517 376 YAG Fort Frances ON CAN na EN38fq 40 2594 1612 43
2255993 2021-12-29 0506 341 DNI Denison TX USA na EM13pt 25 1972 1225 84
2255906 2021-12-29 0503 332 YFM La Grande 4 QC CAN na FO33dr 2000 4079 2534 43
2255961 2021-12-29 0450 258 ZSJ Sandy Lake ON CAN na EO33hb 500 2873 1785 35
2255892 2021-12-29 0450 198 DIW Dixon NC USA na FM14gn 2000 3708 2304 77
2256000 2021-12-29 0406 266 PYX Perryton TX USA na DM96pj 25 1600 994 75
2255995 2021-12-29 0347 365 FT 'Mufin' Fort Worth TX USA na EM12hv 25 1925 1196 88
2255911 2021-12-29 0345 374 HY 'Nette' Hays KS USA na EM08js 1766 1097 67
2255994 2021-12-29 0334 257 DT 'Pinck' Denton TX USA na EM13jg 25 1934 1202 86
2255899 2021-12-29 0234 407 OOC 'Campi' Natchitoches LA USA na EM31lp 25 2352 1462 89
2255960 2021-12-28 0639 328 YTL Big Trout Lake ON CAN na EO53bt 1000 3110 1932 36
2255893 2021-12-28 0626 329 CH 'Ashly' Charleston SC USA na EM92wx 400 3503 2177 81
2255936 2021-12-28 0543 347 AFK Nebraska City NE USA na EN20bo 2088 1297 63
2255952 2021-12-28 0520 353 PG Portage MB CAN na EN09vu 25 2389 1484 36
2255921 2021-12-28 0417 267 HET Henryetta OK USA na EM15xj 25 2018 1254 79
2256001 2021-12-27 1037 272 LD 'Lubbi' Lubbock TX USA na DM93dp 25 1515 941 87
2255938 2021-12-27 0953 392 FMZ 'Beklof' Fairmont NE USA na EN10fo 25 1952 1213 62
2255928 2021-12-27 0948 347 PA Prince Albert SK CAN na DO73cf 25 2339 1453 20
2255895 2021-12-26 1340 329 YEK Arviat NU CAN na EP21xc 500 3459 2149 22
2255999 2021-12-26 1331 359 SDR Snyder TX USA na DM92mq 25 1599 994 90
2255931 2021-12-26 1325 257 XE Saskatoon SK CAN na DO62oe 25 2205 1370 20
2256011 2021-12-26 1120 382 YPW Powell River BC CAN na CN79ru 1828 1136 345
2256005 2021-12-26 1042 218 PR Prince Rupert BC CAN na CO44sg 500 2440 1516 340
2256007 2021-12-26 1037 203 ZKI Kitimat BC CAN na CO54pb 2369 1472 342
2255988 2021-12-26 1035 358 SIT Sitka AK ALS na CO26fu 2852 1772 337
2256009 2021-12-26 1034 242 ZT Port Hardy BC CAN na CO60gq 500 1993 1238 340
2255940 2021-12-26 1033 414 GRN Gordon NE USA na DN82vt 1686 1048 50
2255939 2021-12-26 1029 356 ODX Ord NE USA na EN01mo 25 1872 1163 57
2255941 2021-12-26 1028 359 GGF Grant NE USA na DN90du 1628 1011 57
2255903 2021-12-26 1023 327 VYI 'Valley Island' Kahului HI HWA oc BL10sv 4027 2502 258
2255997 2021-12-26 1015 385 CPZ 'Chaparrosa Ranch' La Pryor TX USA na DL98xv 25 1806 1122 103
2255947 2021-12-26 1006 250 FO Flin Flon MB CAN na DO94dq 1600 2619 1628 24
2255985 2021-12-26 1004 209 CYT Yakataga AK ALS na BP80sc 1000 3385 2103 336
2256008 2021-12-26 0957 325 YJQ Bella Bella (Campbell Island) BC CAN na CO52we 2163 1344 341
2255980 2021-12-26 0952 390 HBT Sand Point (Borland) AK ALS na AO95rh 4004 2488 319
2255996 2021-12-26 0944 368 AN 'Alamo' San Antonio TX USA na EL09ro 400 1913 1188 99
2255914 2021-12-26 0920 380 GC 'Deryk' Gillette WY USA na DN74fg 25 1563 971 39
2255904 2021-12-26 0919 332 POA Pahoa HI HWA oc BK29mn 400 3968 2465 255
2255902 2021-12-26 0919 353 LLD Lanai HI HWA oc BL10ms 2000 4079 2534 258
2255913 2021-12-26 0917 408 JDM 'Wheatfield' Colby KS USA na DM99lm 25 1632 1014 63
2255950 2021-12-26 0915 248 WG Winnipeg MB CAN na EN19hv 250 2438 1515 37
2255912 2021-12-26 0915 341 OIN Oberlin KS USA na DM99rt 25 1683 1045 62
2256017 2021-12-26 0914 251 YCD Nanaimo BC CAN na CN89bd 500 1738 1080 345
2255917 2021-12-26 0912 257 HCY Cowley WY USA na DN54sv 50 1456 905 31
2255937 2021-12-26 0912 400 AHQ Wahoo NE USA na EN11qf 2044 1270 60
2255896 2021-12-26 0912 356 ZF Yellowknife NT CAN na DP22sj 1000 3156 1961 3
2256013 2021-12-26 0912 359 YAZ Tofino BC CAN na CN79db 1777 1104 341
2256004 2021-12-26 0911 382 YE Fort Nelson BC CAN na CO88pt 100 2768 1720 354
2255919 2021-12-26 0911 392 PNA 'Wenz' Pinedale WY USA na DN52ct 25 1209 751 34
2255986 2021-12-26 0910 385 OCC 'Ocean Cape' Yakutat AK ALS na CO09dn 3239 2013 337
2256003 2021-12-26 0909 212 LIU Littlefield TX USA na DM83tw 25 1450 901 86
2255935 2021-12-26 0908 329 PMV Plattsmouth NE USA na EN20bw 25 2097 1303 62
2256002 2021-12-26 0906 251 AM 'Pande' Amarillo TX USA na DM95cd 400 1497 930 80
2255909 2021-12-26 0905 407 HRU Herington KS USA na EM18oq 25 1971 1225 68
2255948 2021-12-26 0904 284 QD The Pas MB CAN na DO93lx 500 2583 1605 25
2255891 2021-12-26 0904 391 DDP San Juan / Dorado / Luiz Munoz Marin Intl PR PTR ca FK68tl 2000 5382 3344 95
2256012 2021-12-26 0902 257 LW Kelowna BC CAN na DO00hb 50 1777 1104 357
2255915 2021-12-26 0901 293 TOR Torrington WY USA na DN72wb 25 1508 937 49
2255889 2021-12-26 0900 365 PAL Palma EQA sa FI07cx 1000 5670 3523 127
2256016 2021-12-26 0900 389 YWB Kelowna BC CAN na DN09et 1751 1088 356
2255975 2021-12-26 0859 248 QL Lethbridge AB CAN na DN39no 1776 1104 12
2255962 2021-12-26 0858 332 QT Thunder Bay ON CAN na EN58gi 1000 2847 1769 47
2255973 2021-12-26 0858 332 XH Medicine Hat AB CAN na DO40oa 50 1868 1161 16
2255959 2021-12-26 0858 335 YLD Chapleau ON CAN na EN87hs 100 3253 2021 51
2255918 2021-12-26 0858 275 GEY Greybull WY USA na DN54xm 50 1445 898 33
2256014 2021-12-26 0857 368 SX Skookum (Cranbrook) BC CAN na DN29cw 500 1771 1100 5
2256010 2021-12-26 0857 203 YBL Campbell River BC CAN na CO70ha 1866 1159 343
2255926 2021-12-26 0855 275 GUY Guymon OK USA na DM96fq 25 1528 950 74
2256018 2021-12-26 0853 312 UNT Naramata (Penticton) BC CAN na DN09eo 1728 1074 356
2255942 2021-12-26 0853 275 HIN 'Whitney' Chadron NE USA na DN82kt 25 1622 1008 48
2255970 2021-12-26 0853 320 YQF Red Deer AB CAN na DO32bd 50 2035 1264 8
2256015 2021-12-26 0852 374 EX Rutland (Kelowna) BC CAN na DN09hw 1763 1096 357
2255933 2021-12-26 0850 290 QR Regina SK CAN na DO70ri 100 2117 1316 27
2255974 2021-12-26 0850 362 6T Foremost AB CAN na DN49gl 41 1795 1115 15
2255908 2021-12-26 0849 351 YKQ Waskaganish QC CAN na FO01pl 500 3688 2291 46
2255963 2021-12-26 0849 346 YXL Sioux Lookout ON CAN na EO40bc 1000 2777 1725 42
2255955 2021-12-26 0849 401 YPO Peawanuck ON CAN na EO74gx 125 3422 2126 37
2255924 2021-12-26 0848 350 RG 'Gally' Oklahoma City OK USA na EM15eh 400 1875 1165 80
2255907 2021-12-26 0848 371 GW Jarpik Kuujjuarapik QC CAN na FO15cg 500 3878 2409 40
2255956 2021-12-26 0848 362 SB Sudbury ON CAN na EN96mp 400 3403 2115 54
2256006 2021-12-26 0843 332 XT Terrace BC CAN na CO54ri 2394 1487 343
2255923 2021-12-26 0820 515 PN 'Ponca' Ponca City OK USA na EM16kt 25 1922 1194 74
2255898 2021-12-26 0811 379 DL 'Pykla' Duluth MN USA na EN36tu 2580 1603 48
2255888 2021-12-26 0759 369 ZDX Coolidge Saint Johns ATG ca FK97cd 700 5876 3651 93
2255990 2021-12-26 0545 338 HR 'Sebas' Harlingen TX USA na EL16eh 25 2147 1334 108
2255901 2021-12-26 0438 344 JA 'Dinns' Jacksonville FL USA na EM90cl 400 3421 2125 86
2240766 2021-12-16 1108 411 ILI Iliamna AK ALS na BO29nr 3897 2421 328
2240765 2021-12-16 1103 329 PJ Robinson (Whitehorse) YT CAN na CP20nk 100 3168 1968 342
2240764 2021-12-16 0820 278 AUR 'Sulfy' Sulphur LA USA na EM30ge 25 2357 1464 93
2238511 2021-12-12 0437 362 GND 'Port Salines' Grand Anse GRD ca FK92ca 150 6176 3837 99
2238510 2021-12-10 0529 206 QI Yarmouth NS CAN na FN63wt 500 4546 2824 60
2232005 2021-12-05 1432 338 MA Mount Isa QD AUS oc PG99rh 12385 7695 258
2232004 2021-12-05 1409 311 NTN Normanton QD AUS oc QH02mh 12073 7501 260
2232006 2021-12-05 1335 355 NI Nauru NRU oc RI39lk 8659 5380 260
2232007 2021-12-05 1324 364 CS Cairns QD AUS oc QH23ud 11602 7208 259
2232003 2021-12-05 1247 260 NF Anson's Point (Norfolk Is) NFK oc RG30xx 500 10462 6501 237
2227383 2021-11-27 0709 293 MB 'Mill Bay' Victoria BC CAN na CN88fq 25 1682 1045 346
2227376 2021-11-27 0654 280 GYZ 'Camp Guernsey' Guernsey WY USA na DN72pf 50 1477 918 48
2227384 2021-11-27 0639 293 UI Quincy IL USA na EM49iv 25 2458 1527 66
2227374 2021-11-27 0610 276 YEL Elliot Lake ON CAN na EN86qi 250 3272 2033 54
2227387 2021-11-27 0609 308 ZZD Calmar (Edmonton Intl Apt) AB CAN na DO33eg 2161 1342 8
2227388 2021-11-27 0608 311 9Y Pincher Creek AB CAN na DN39am 50 1748 1086 10
2227373 2021-11-27 0607 275 HIN 'Whitney' Chadron NE USA na DN82kt 25 1622 1008 48
2227380 2021-11-27 0552 292 ZET Devon (Edmonton Intl Apt) AB CAN na DO33di 25 2169 1347 7
2227385 2021-11-27 0447 300 YIV Island Lake MB CAN na EO23qu 500 2864 1779 32
2227382 2021-11-27 0408 293 FBY Fairbury NE USA na EN10ke 50 1974 1227 63
2227379 2021-11-27 0407 290 QR Regina SK CAN na DO70ri 100 2117 1316 27
2227371 2021-11-27 0404 272 LD 'Lubbi' Lubbock TX USA na DM93dp 25 1515 941 87
2227389 2021-11-27 0404 312 UNT Naramata (Penticton) BC CAN na DN09eo 1728 1074 356
2227381 2021-11-27 0343 293 TOR Torrington WY USA na DN72wb 25 1508 937 49
2227372 2021-11-27 0332 275 GUY Guymon OK USA na DM96fq 25 1528 950 74
2227386 2021-11-27 0320 305 RO 'Topan' Roswell NM USA na DM73si 400 1266 786 89
2227378 2021-11-27 0309 290 YYF Penticton BC CAN na DN09el 500 1714 1065 356
2227377 2021-11-27 0248 284 QD The Pas MB CAN na DO93lx 500 2583 1605 25
2227375 2021-11-27 0242 278 CEP 'Capitan' Ruidoso NM USA na DM73hl 25 1179 733 89
2228140 2021-11-26 0940 224 BH 'Mc Den' Birmingham AL USA na EM63nm 400 2876 1787 82
2228139 2021-11-18 1139 405 9G Sundre AB CAN na DO21ps 500 1983 1232 6
2228138 2021-11-16 0853 415 SLS Salinas (Guayas) EQA sa EI97mt 5600 3479 128
2228137 2021-11-16 0746 365 PAL Palma EQA sa FI07cx 1000 5670 3523 127
2218973 2021-11-13 0954 400 MDY 'Midway' Gooneyville (Sand Island) MDW oc AL18he 5599 3479 280
2218971 2021-11-12 1002 372 UQN 'Onyun' Vidalia GA USA na EM82uf 25 3325 2066 83
2218969 2021-11-12 0923 272 LD 'Lubbi' Lubbock TX USA na DM93dp 25 1515 941 87
2218968 2021-11-12 0907 263 CVM 'Civic Memorial' Alton IL USA na EM48xv 2555 1588 69
2218972 2021-11-12 0846 394 MKL 'Mersy' Jackson TN USA na EM55mm 25 2658 1651 78
2216256 2021-11-08 1135 366 SF Springfield NZL oc RF74ec 50 10466 6503 228
2216253 2021-11-08 0832 344 JL 'Lunns' Joplin MO USA na EM27re 2153 1337 74
2216255 2021-11-08 0741 365 SYZ Shelbyville IL USA na EM59nj 25 2659 1652 68
2216258 2021-11-06 1222 417 IY 'Chukk' Charles City IA USA na EN33pd 25 2413 1499 57
2216252 2021-11-06 1057 238 KT Kaitaia NZL oc RF64ox 1100 10486 6515 229
2216257 2021-11-05 0950 392 PNA 'Wenz' Pinedale WY USA na DN52ct 25 1209 751 34
2216254 2021-11-05 0935 353 AB 'Tomhi' Abilene TX USA na EM02dh 1722 1070 91
2212695 2021-11-03 1031 355 NI Nauru NRU oc RI39lk 8659 5380 260
2212693 2021-11-02 0638 330 MF 'Missi' Mc Allen TX USA na EL06ug 2091 1299 109
2212691 2021-11-02 0629 323 TAB Crown Point TRD ca FK91nd 6313 3923 99
2212697 2021-11-02 0623 393 BR 'Depoo' Brownsville TX USA na EL15fx 2172 1349 109
2212696 2021-11-01 0944 356 SJ 'Woole' San Angelo TX USA na DM91rg 1673 1040 95
2212692 2021-11-01 0943 329 AAA 'Abraham' Lincoln IL USA na EN50hd 25 2623 1630 66
2212688 2021-11-01 0922 284 FHR Friday Harbor WA USA na CN88lm 1654 1028 347
2212684 2021-11-01 0913 248 QH Watson Lake YT CAN na CP50ne 3003 1866 348
2212686 2021-11-01 0720 260 MTH Marathon FL USA na EL94kr 100 3710 2305 96
2212690 2021-10-28 1331 295 8C Fairview AB CAN na DO06sb 2442 1517 359
2212685 2021-10-28 0825 257 JYR York NE USA na EN10ev 25 1954 1214 61
2212698 2021-10-28 0801 429 BTS 'Wood River' Dillingham AK ALS na BO08rx 4042 2511 325
2212694 2021-10-26 0853 341 CQN 'Daisy' Chattanooga TN USA na EM75kd 50 3008 1869 78
2212689 2021-10-26 0852 293 UI Quincy IL USA na EM49iv 25 2458 1527 66
2212687 2021-10-26 0817 269 UDE Delta MB CAN na EO00ud 50 2405 1494 36
2208330 2021-10-25 1125 219 ZRS 'Ajax' Regina SK CAN na DO70pl 2122 1318 26
2208324 2021-10-25 1014 207 YNE Norway House MB CAN na EO13bx 1000 2718 1689 29
2208331 2021-10-25 1011 224 BK Baker Lake NU CAN na EP14xh 1000 3679 2286 17
2208319 2021-10-23 1315 200 YJ Sydney BC CAN na CN88hp 100 1674 1040 346
2208322 2021-10-23 1159 203 YBL Campbell River BC CAN na CO70ha 1866 1159 343
2208323 2021-10-23 1054 203 ZKI Kitimat BC CAN na CO54pb 2369 1472 342
2208325 2021-10-23 1016 209 CYT Yakataga AK ALS na BP80sc 1000 3385 2103 336
2208320 2021-10-23 0949 200 YDL Dease Lake BC CAN na CO58ak 2845 1767 345
2208332 2021-10-23 0927 233 ALJ Orca Bay - Hinchinbrook Island AK ALS na BP60ql 1000 3577 2223 333
2208327 2021-10-23 0919 212 YGX Gillam MB CAN na EO26pi 3047 1893 28
2208326 2021-10-23 0833 209 ITR 'Kit Carson' Burlington CO USA na DM89uf 25 1520 944 63
2208329 2021-10-23 0816 218 PR Prince Rupert BC CAN na CO44sg 500 2440 1516 340
2208328 2021-10-23 0606 212 LIU Littlefield TX USA na DM83tw 25 1450 901 86
2208318 2021-10-23 0605 198 DIW Dixon NC USA na FM14gn 2000 3708 2304 77
2208321 2021-10-23 0601 201 IP Mobile AZ USA na DM33tc 25 544 338 100
2206370 2021-10-22 1124 353 AL 'Trina' Walla Walla WA USA na DN06ve 1344 835 359
2206356 2021-10-21 1045 207 YNE Norway House MB CAN na EO13bx 1000 2718 1689 29
2206374 2021-10-20 0728 363 RNB 'Rainbow' Millville NJ USA na FM29kk 50 3839 2385 68
2206379 2021-10-18 0726 392 AGZ Wagner SD USA na EN03ub 25 1984 1232 54
2202369 2021-10-14 1324 395 PMQ Port MacQuarie NW AUS oc QF68kn 11816 7341 242
2202367 2021-10-14 1320 360 OX Iwo Jima VOI as QL04ps 1250 9389 5834 296
2202365 2021-10-14 1253 278 CG Coolangatta QD AUS oc QG61su 11572 7190 245
2209553 2021-10-14 1246 364 CS Cairns QD AUS oc QH23ud 11602 7208 259
2209552 2021-10-14 1244 305 GTH Griffith NW AUS oc QF35ar 500 12527 7783 242
2202368 2021-10-14 1238 380 SU Sunshine Coast QD AUS oc QG63nj 11518 7156 246
2202366 2021-10-14 1212 308 MK Mackay QD AUS oc QG48ou 11539 7170 253
2218970 2021-10-14 1147 302 BUD Bundaberg QD AUS oc QG65dc 11489 7139 248
2206355 2021-10-10 1307 203 YBL Campbell River BC CAN na CO70ha 1866 1159 343
2206360 2021-10-10 1256 277 ACE 'Kachemak' Homer AK ALS na BO49gp 3730 2318 329
2206382 2021-10-10 1136 405 2K Camrose AB CAN na DO33oa 2145 1333 9
2206371 2021-10-10 1109 356 HHM 'Hotham' Kotzebue AK ALS na AP86rv 4625 2874 335
2206377 2021-10-10 1105 382 JNR 'North River' Unalakleet AK ALS na AP93ov 4394 2730 332
2209551 2021-10-10 1101 390 AES 'Nabesna' Northway AK ALS na BP92bx 3609 2242 340
2206357 2021-10-10 1057 221 QU Grande Prairie AB CAN na DO05od 50 2340 1454 358
2206359 2021-10-10 1055 240 BVS 'Skagit / Bay View' Burlington / Mt Vernon WA USA na CN88sl 25 1638 1018 348
2206362 2021-10-10 1052 287 YSF Stony Rapids SK CAN na DO79bg 2939 1826 14
2206358 2021-10-10 1046 233 OKS Oshkosh NE USA na DN81tj 25 1601 995 54
2206373 2021-10-10 1041 362 CD 'Dawes' Chadron NE USA na DN82js 1613 1003 48
2206364 2021-10-10 0945 329 YEK Arviat NU CAN na EP21xc 500 3459 2149 22
2206367 2021-10-10 0859 338 HR 'Sebas' Harlingen TX USA na EL16eh 25 2147 1334 108
2206363 2021-10-10 0836 325 YJQ Bella Bella (Campbell Island) BC CAN na CO52we 2163 1344 341
2206365 2021-10-10 0809 334 YER Fort Severn ON CAN na EO65ex 195 3363 2089 34
2206383 2021-10-10 0807 420 FQ 'Montz' Fairmont MN USA na EN23tp 25 2302 1430 55
2206369 2021-10-10 0751 353 PG Portage MB CAN na EN09vu 25 2389 1484 36
2206361 2021-10-10 0744 281 CRN 'Cairn Mountain' Sparrevohn AK ALS na BP21fc 4006 2489 330
2206372 2021-10-10 0743 359 ANI Aniak AK ALS na BP01eo 250 4224 2624 329
2206376 2021-10-10 0741 378 RJ Roberval QC CAN na FN38un 500 4077 2533 52
2206366 2021-10-10 0738 338 ZEM Eastmain QC CAN na FO02rf 25 3722 2313 45
2206368 2021-10-10 0653 344 JA 'Dinns' Jacksonville FL USA na EM90cl 400 3421 2125 86
2206378 2021-10-10 0612 385 CPZ 'Chaparrosa Ranch' La Pryor TX USA na DL98xv 25 1806 1122 103
2206381 2021-10-08 1143 403 TUT Tafuna (Tutuila Island) SMA oc AH45pq 2000 7737 4807 235
2206375 2021-10-07 1142 364 MI Momi FJI oc RH82pc 8945 5558 240
2206380 2021-10-07 0719 400 FN 'Colln' Fort Collins / Loveland CO USA na DN70mi 25 1355 842 55
2197317 2021-10-06 0820 327 VYI 'Valley Island' Kahului HI HWA oc BL10sv 4027 2502 258
2196897 2021-10-04 1321 346 TG Tauranga NZL oc RF82ch 10471 6506 226
2196888 2021-10-04 1235 302 6K Vernon BC CAN na DO00ii 25 1809 1124 357
2196911 2021-10-04 1213 402 L4 Nipawin SK CAN na DO73xi 200 2411 1498 23
2196886 2021-10-04 1205 280 GYZ 'Camp Guernsey' Guernsey WY USA na DN72pf 50 1477 918 48
2196902 2021-10-04 1201 374 HY 'Nette' Hays KS USA na EM08js 1766 1097 67